sensor_id;sensor_type;location;lat;lon;timestamp;P1;durP1;ratioP1;P2;durP2;ratioP2
69185;SDS011;56298;49.246;9.410;2024-02-21T00:00:36;15.30;;;4.30;;
69185;SDS011;56298;49.246;9.410;2024-02-21T00:03:03;13.60;;;4.03;;
69185;SDS011;56298;49.246;9.410;2024-02-21T00:05:29;15.30;;;4.30;;
69185;SDS011;56298;49.246;9.410;2024-02-21T00:07:54;13.93;;;4.23;;
69185;SDS011;56298;49.246;9.410;2024-02-21T00:10:20;13.33;;;4.10;;
69185;SDS011;56298;49.246;9.410;2024-02-21T00:12:45;14.00;;;4.40;;
69185;SDS011;56298;49.246;9.410;2024-02-21T00:15:10;14.07;;;4.23;;
69185;SDS011;56298;49.246;9.410;2024-02-21T00:17:36;11.47;;;3.97;;
69185;SDS011;56298;49.246;9.410;2024-02-21T00:20:01;14.60;;;4.60;;
69185;SDS011;56298;49.246;9.410;2024-02-21T00:22:26;14.57;;;4.60;;
69185;SDS011;56298;49.246;9.410;2024-02-21T00:24:54;15.75;;;4.80;;
69185;SDS011;56298;49.246;9.410;2024-02-21T00:27:19;15.25;;;4.30;;
69185;SDS011;56298;49.246;9.410;2024-02-21T00:29:44;12.33;;;4.40;;
69185;SDS011;56298;49.246;9.410;2024-02-21T00:32:09;14.03;;;4.60;;
69185;SDS011;56298;49.246;9.410;2024-02-21T00:34:35;13.23;;;3.67;;
69185;SDS011;56298;49.246;9.410;2024-02-21T00:37:00;14.13;;;4.07;;
69185;SDS011;56298;49.246;9.410;2024-02-21T00:39:25;13.60;;;3.73;;
69185;SDS011;56298;49.246;9.410;2024-02-21T00:41:51;12.53;;;3.80;;
69185;SDS011;56298;49.246;9.410;2024-02-21T00:44:16;13.03;;;3.50;;
69185;SDS011;56298;49.246;9.410;2024-02-21T00:46:42;12.20;;;3.93;;
69185;SDS011;56298;49.246;9.410;2024-02-21T00:49:07;11.80;;;3.53;;
69185;SDS011;56298;49.246;9.410;2024-02-21T00:51:32;13.40;;;3.57;;
69185;SDS011;56298;49.246;9.410;2024-02-21T00:53:57;10.17;;;3.50;;
69185;SDS011;56298;49.246;9.410;2024-02-21T00:56:23;10.80;;;3.70;;
69185;SDS011;56298;49.246;9.410;2024-02-21T00:58:48;9.87;;;3.53;;
69185;SDS011;56298;49.246;9.410;2024-02-21T01:01:13;12.37;;;3.60;;
69185;SDS011;56298;49.246;9.410;2024-02-21T01:03:46;12.05;;;3.58;;
69185;SDS011;56298;49.246;9.410;2024-02-21T01:06:11;15.60;;;4.13;;
69185;SDS011;56298;49.246;9.410;2024-02-21T01:08:36;12.57;;;4.00;;
69185;SDS011;56298;49.246;9.410;2024-02-21T01:11:01;14.35;;;3.63;;
69185;SDS011;56298;49.246;9.410;2024-02-21T01:13:27;13.63;;;3.37;;
69185;SDS011;56298;49.246;9.410;2024-02-21T01:15:52;12.40;;;3.47;;
69185;SDS011;56298;49.246;9.410;2024-02-21T01:18:17;12.00;;;3.60;;
69185;SDS011;56298;49.246;9.410;2024-02-21T01:20:43;11.27;;;3.40;;
69185;SDS011;56298;49.246;9.410;2024-02-21T01:23:08;13.27;;;3.40;;
69185;SDS011;56298;49.246;9.410;2024-02-21T01:25:33;11.40;;;3.30;;
69185;SDS011;56298;49.246;9.410;2024-02-21T01:27:58;15.63;;;3.77;;
69185;SDS011;56298;49.246;9.410;2024-02-21T01:30:24;12.63;;;3.30;;
69185;SDS011;56298;49.246;9.410;2024-02-21T01:32:49;11.60;;;3.40;;
69185;SDS011;56298;49.246;9.410;2024-02-21T01:35:14;15.33;;;3.37;;
69185;SDS011;56298;49.246;9.410;2024-02-21T01:37:40;13.57;;;3.33;;
69185;SDS011;56298;49.246;9.410;2024-02-21T01:40:05;12.07;;;3.43;;
69185;SDS011;56298;49.246;9.410;2024-02-21T01:42:31;11.73;;;3.33;;
69185;SDS011;56298;49.246;9.410;2024-02-21T01:44:56;13.93;;;3.67;;
69185;SDS011;56298;49.246;9.410;2024-02-21T01:47:21;11.60;;;2.90;;
69185;SDS011;56298;49.246;9.410;2024-02-21T01:49:46;12.60;;;3.43;;
69185;SDS011;56298;49.246;9.410;2024-02-21T01:52:12;9.43;;;3.37;;
69185;SDS011;56298;49.246;9.410;2024-02-21T01:54:39;11.82;;;3.15;;
69185;SDS011;56298;49.246;9.410;2024-02-21T01:57:05;12.30;;;3.37;;
69185;SDS011;56298;49.246;9.410;2024-02-21T01:59:30;14.60;;;3.47;;
69185;SDS011;56298;49.246;9.410;2024-02-21T02:01:56;11.10;;;3.10;;
69185;SDS011;56298;49.246;9.410;2024-02-21T02:04:22;12.00;;;3.50;;
69185;SDS011;56298;49.246;9.410;2024-02-21T02:06:47;14.02;;;3.30;;
69185;SDS011;56298;49.246;9.410;2024-02-21T02:09:13;12.30;;;3.35;;
69185;SDS011;56298;49.246;9.410;2024-02-21T02:11:39;13.63;;;3.70;;
69185;SDS011;56298;49.246;9.410;2024-02-21T02:14:04;13.23;;;3.67;;
69185;SDS011;56298;49.246;9.410;2024-02-21T02:16:29;14.07;;;3.93;;
69185;SDS011;56298;49.246;9.410;2024-02-21T02:18:55;15.23;;;3.97;;
69185;SDS011;56298;49.246;9.410;2024-02-21T02:21:23;11.37;;;3.40;;
69185;SDS011;56298;49.246;9.410;2024-02-21T02:23:52;11.75;;;3.78;;
69185;SDS011;56298;49.246;9.410;2024-02-21T02:26:17;13.60;;;3.70;;
69185;SDS011;56298;49.246;9.410;2024-02-21T02:28:42;16.63;;;4.40;;
69185;SDS011;56298;49.246;9.410;2024-02-21T02:31:07;11.20;;;4.13;;
69185;SDS011;56298;49.246;9.410;2024-02-21T02:33:33;13.40;;;3.88;;
69185;SDS011;56298;49.246;9.410;2024-02-21T02:35:58;15.40;;;4.43;;
69185;SDS011;56298;49.246;9.410;2024-02-21T02:38:23;16.23;;;4.20;;
69185;SDS011;56298;49.246;9.410;2024-02-21T02:40:49;12.83;;;4.40;;
69185;SDS011;56298;49.246;9.410;2024-02-21T02:43:14;15.23;;;4.27;;
69185;SDS011;56298;49.246;9.410;2024-02-21T02:45:40;14.50;;;3.90;;
69185;SDS011;56298;49.246;9.410;2024-02-21T02:48:05;11.67;;;4.20;;
69185;SDS011;56298;49.246;9.410;2024-02-21T02:50:31;14.68;;;4.22;;
69185;SDS011;56298;49.246;9.410;2024-02-21T02:52:56;13.80;;;4.60;;
69185;SDS011;56298;49.246;9.410;2024-02-21T02:55:21;12.57;;;4.00;;
69185;SDS011;56298;49.246;9.410;2024-02-21T02:57:47;15.13;;;4.00;;
69185;SDS011;56298;49.246;9.410;2024-02-21T03:00:13;11.40;;;3.83;;
69185;SDS011;56298;49.246;9.410;2024-02-21T03:02:40;14.82;;;4.18;;
69185;SDS011;56298;49.246;9.410;2024-02-21T03:05:13;18.23;;;4.75;;
69185;SDS011;56298;49.246;9.410;2024-02-21T03:07:42;12.98;;;4.00;;
69185;SDS011;56298;49.246;9.410;2024-02-21T03:10:08;13.03;;;4.20;;
69185;SDS011;56298;49.246;9.410;2024-02-21T03:12:34;16.15;;;4.55;;
69185;SDS011;56298;49.246;9.410;2024-02-21T03:15:00;11.17;;;4.10;;
69185;SDS011;56298;49.246;9.410;2024-02-21T03:17:25;14.83;;;4.27;;
69185;SDS011;56298;49.246;9.410;2024-02-21T03:19:52;13.15;;;4.20;;
69185;SDS011;56298;49.246;9.410;2024-02-21T03:22:17;14.50;;;4.20;;
69185;SDS011;56298;49.246;9.410;2024-02-21T03:24:42;14.47;;;4.03;;
69185;SDS011;56298;49.246;9.410;2024-02-21T03:27:08;12.13;;;3.97;;
69185;SDS011;56298;49.246;9.410;2024-02-21T03:29:33;11.33;;;3.77;;
69185;SDS011;56298;49.246;9.410;2024-02-21T03:31:59;15.33;;;4.10;;
69185;SDS011;56298;49.246;9.410;2024-02-21T03:34:24;16.23;;;4.10;;
69185;SDS011;56298;49.246;9.410;2024-02-21T03:36:49;13.47;;;4.13;;
69185;SDS011;56298;49.246;9.410;2024-02-21T03:39:14;14.83;;;4.47;;
69185;SDS011;56298;49.246;9.410;2024-02-21T03:41:40;14.00;;;4.20;;
69185;SDS011;56298;49.246;9.410;2024-02-21T03:44:05;12.57;;;4.20;;
69185;SDS011;56298;49.246;9.410;2024-02-21T03:46:30;15.87;;;4.40;;
69185;SDS011;56298;49.246;9.410;2024-02-21T03:48:56;13.53;;;4.13;;
69185;SDS011;56298;49.246;9.410;2024-02-21T03:51:22;14.20;;;4.35;;
69185;SDS011;56298;49.246;9.410;2024-02-21T03:53:47;14.03;;;4.30;;
69185;SDS011;56298;49.246;9.410;2024-02-21T03:56:12;12.73;;;3.97;;
69185;SDS011;56298;49.246;9.410;2024-02-21T03:58:37;13.60;;;4.03;;
69185;SDS011;56298;49.246;9.410;2024-02-21T04:01:03;13.90;;;4.10;;
69185;SDS011;56298;49.246;9.410;2024-02-21T04:03:28;14.77;;;4.13;;
69185;SDS011;56298;49.246;9.410;2024-02-21T04:05:54;12.67;;;4.20;;
69185;SDS011;56298;49.246;9.410;2024-02-21T04:08:19;11.70;;;4.00;;
69185;SDS011;56298;49.246;9.410;2024-02-21T04:10:45;12.60;;;3.87;;
69185;SDS011;56298;49.246;9.410;2024-02-21T04:13:10;13.37;;;4.20;;
69185;SDS011;56298;49.246;9.410;2024-02-21T04:15:35;12.97;;;3.70;;
69185;SDS011;56298;49.246;9.410;2024-02-21T04:18:01;12.97;;;3.60;;
69185;SDS011;56298;49.246;9.410;2024-02-21T04:20:28;11.20;;;3.50;;
69185;SDS011;56298;49.246;9.410;2024-02-21T04:22:53;12.40;;;3.75;;
69185;SDS011;56298;49.246;9.410;2024-02-21T04:25:18;13.87;;;4.80;;
69185;SDS011;56298;49.246;9.410;2024-02-21T04:27:44;12.83;;;4.50;;
69185;SDS011;56298;49.246;9.410;2024-02-21T04:30:09;11.23;;;3.80;;
69185;SDS011;56298;49.246;9.410;2024-02-21T04:32:35;11.73;;;3.70;;
69185;SDS011;56298;49.246;9.410;2024-02-21T04:35:00;11.85;;;3.75;;
69185;SDS011;56298;49.246;9.410;2024-02-21T04:37:26;13.77;;;4.13;;
69185;SDS011;56298;49.246;9.410;2024-02-21T04:39:51;13.80;;;5.07;;
69185;SDS011;56298;49.246;9.410;2024-02-21T04:42:16;14.90;;;4.70;;
69185;SDS011;56298;49.246;9.410;2024-02-21T04:44:42;13.73;;;4.60;;
69185;SDS011;56298;49.246;9.410;2024-02-21T04:47:07;14.93;;;4.47;;
69185;SDS011;56298;49.246;9.410;2024-02-21T04:49:33;15.30;;;5.90;;
69185;SDS011;56298;49.246;9.410;2024-02-21T04:51:58;10.57;;;4.20;;
69185;SDS011;56298;49.246;9.410;2024-02-21T04:54:23;12.77;;;4.20;;
69185;SDS011;56298;49.246;9.410;2024-02-21T04:56:49;13.17;;;4.53;;
69185;SDS011;56298;49.246;9.410;2024-02-21T04:59:14;12.27;;;3.50;;
69185;SDS011;56298;49.246;9.410;2024-02-21T05:01:39;12.43;;;3.73;;
69185;SDS011;56298;49.246;9.410;2024-02-21T05:04:05;11.70;;;3.80;;
69185;SDS011;56298;49.246;9.410;2024-02-21T05:06:30;13.15;;;3.97;;
69185;SDS011;56298;49.246;9.410;2024-02-21T05:08:56;15.27;;;4.50;;
69185;SDS011;56298;49.246;9.410;2024-02-21T05:11:22;13.25;;;4.00;;
69185;SDS011;56298;49.246;9.410;2024-02-21T05:13:48;13.07;;;4.33;;
69185;SDS011;56298;49.246;9.410;2024-02-21T05:16:13;13.80;;;3.80;;
69185;SDS011;56298;49.246;9.410;2024-02-21T05:18:40;18.10;;;7.10;;
69185;SDS011;56298;49.246;9.410;2024-02-21T05:21:05;53.20;;;24.10;;
69185;SDS011;56298;49.246;9.410;2024-02-21T05:23:31;95.27;;;41.47;;
69185;SDS011;56298;49.246;9.410;2024-02-21T05:25:56;96.90;;;44.83;;
69185;SDS011;56298;49.246;9.410;2024-02-21T05:28:21;231.13;;;97.50;;
69185;SDS011;56298;49.246;9.410;2024-02-21T05:30:46;44.58;;;18.00;;
69185;SDS011;56298;49.246;9.410;2024-02-21T05:33:12;171.53;;;63.30;;
69185;SDS011;56298;49.246;9.410;2024-02-21T05:35:37;134.38;;;51.45;;
69185;SDS011;56298;49.246;9.410;2024-02-21T05:38:03;100.70;;;42.37;;
69185;SDS011;56298;49.246;9.410;2024-02-21T05:40:36;161.43;;;66.75;;
69185;SDS011;56298;49.246;9.410;2024-02-21T05:43:01;149.37;;;67.37;;
69185;SDS011;56298;49.246;9.410;2024-02-21T05:45:27;110.13;;;52.97;;
69185;SDS011;56298;49.246;9.410;2024-02-21T05:47:52;20.50;;;9.23;;
69185;SDS011;56298;49.246;9.410;2024-02-21T05:50:17;85.17;;;30.63;;
69185;SDS011;56298;49.246;9.410;2024-02-21T05:52:42;131.87;;;44.87;;
69185;SDS011;56298;49.246;9.410;2024-02-21T05:55:07;65.90;;;24.60;;
69185;SDS011;56298;49.246;9.410;2024-02-21T05:57:34;152.07;;;53.20;;
69185;SDS011;56298;49.246;9.410;2024-02-21T05:59:59;302.53;;;110.37;;
69185;SDS011;56298;49.246;9.410;2024-02-21T06:02:25;42.47;;;15.48;;
69185;SDS011;56298;49.246;9.410;2024-02-21T06:04:50;253.77;;;90.33;;
69185;SDS011;56298;49.246;9.410;2024-02-21T06:07:15;206.20;;;73.10;;
69185;SDS011;56298;49.246;9.410;2024-02-21T06:09:40;317.67;;;118.13;;
69185;SDS011;56298;49.246;9.410;2024-02-21T06:12:05;207.93;;;72.87;;
69185;SDS011;56298;49.246;9.410;2024-02-21T06:14:31;429.30;;;152.93;;
69185;SDS011;56298;49.246;9.410;2024-02-21T06:19:57;151.87;;;42.63;;
69185;SDS011;56298;49.246;9.410;2024-02-21T06:22:22;100.37;;;30.60;;
69185;SDS011;56298;49.246;9.410;2024-02-21T06:24:47;84.70;;;27.83;;
69185;SDS011;56298;49.246;9.410;2024-02-21T06:27:13;130.93;;;38.37;;
69185;SDS011;56298;49.246;9.410;2024-02-21T06:29:41;292.70;;;90.67;;
69185;SDS011;56298;49.246;9.410;2024-02-21T06:32:06;205.10;;;66.80;;
69185;SDS011;56298;49.246;9.410;2024-02-21T06:34:31;85.70;;;31.30;;
69185;SDS011;56298;49.246;9.410;2024-02-21T06:36:56;138.13;;;46.27;;
69185;SDS011;56298;49.246;9.410;2024-02-21T06:39:22;83.13;;;31.13;;
69185;SDS011;56298;49.246;9.410;2024-02-21T06:41:48;68.37;;;27.57;;
69185;SDS011;56298;49.246;9.410;2024-02-21T06:44:15;265.50;;;90.75;;
69185;SDS011;56298;49.246;9.410;2024-02-21T06:46:40;428.70;;;155.83;;
69185;SDS011;56298;49.246;9.410;2024-02-21T06:49:05;217.10;;;71.13;;
69185;SDS011;56298;49.246;9.410;2024-02-21T06:51:31;176.23;;;50.27;;
69185;SDS011;56298;49.246;9.410;2024-02-21T06:53:56;64.47;;;19.70;;
69185;SDS011;56298;49.246;9.410;2024-02-21T06:56:23;267.87;;;78.03;;
69185;SDS011;56298;49.246;9.410;2024-02-21T06:58:51;148.00;;;44.30;;
69185;SDS011;56298;49.246;9.410;2024-02-21T07:01:17;93.15;;;30.50;;
69185;SDS011;56298;49.246;9.410;2024-02-21T07:03:42;30.43;;;9.73;;
69185;SDS011;56298;49.246;9.410;2024-02-21T07:06:07;10.70;;;4.17;;
69185;SDS011;56298;49.246;9.410;2024-02-21T07:08:33;16.50;;;8.30;;
69185;SDS011;56298;49.246;9.410;2024-02-21T07:10:58;35.77;;;15.77;;
69185;SDS011;56298;49.246;9.410;2024-02-21T07:13:23;42.03;;;17.97;;
69185;SDS011;56298;49.246;9.410;2024-02-21T07:15:48;69.03;;;24.10;;
69185;SDS011;56298;49.246;9.410;2024-02-21T07:18:15;31.25;;;10.32;;
69185;SDS011;56298;49.246;9.410;2024-02-21T07:20:41;24.30;;;8.40;;
69185;SDS011;56298;49.246;9.410;2024-02-21T07:23:08;17.97;;;6.33;;
69185;SDS011;56298;49.246;9.410;2024-02-21T07:25:34;33.73;;;14.40;;
69185;SDS011;56298;49.246;9.410;2024-02-21T07:27:59;26.63;;;11.80;;
69185;SDS011;56298;49.246;9.410;2024-02-21T07:30:24;52.70;;;26.57;;
69185;SDS011;56298;49.246;9.410;2024-02-21T07:32:50;42.17;;;20.43;;
69185;SDS011;56298;49.246;9.410;2024-02-21T07:35:17;22.57;;;8.80;;
69185;SDS011;56298;49.246;9.410;2024-02-21T07:37:42;28.52;;;12.68;;
69185;SDS011;56298;49.246;9.410;2024-02-21T07:40:14;17.97;;;8.43;;
69185;SDS011;56298;49.246;9.410;2024-02-21T07:42:40;13.20;;;4.40;;
69185;SDS011;56298;49.246;9.410;2024-02-21T07:45:09;13.43;;;4.87;;
69185;SDS011;56298;49.246;9.410;2024-02-21T07:47:35;11.27;;;4.22;;
69185;SDS011;56298;49.246;9.410;2024-02-21T07:50:01;17.48;;;6.50;;
69185;SDS011;56298;49.246;9.410;2024-02-21T07:52:27;15.50;;;5.60;;
69185;SDS011;56298;49.246;9.410;2024-02-21T07:54:52;14.35;;;6.63;;
69185;SDS011;56298;49.246;9.410;2024-02-21T07:57:17;19.97;;;8.27;;
69185;SDS011;56298;49.246;9.410;2024-02-21T07:59:43;22.00;;;11.30;;
69185;SDS011;56298;49.246;9.410;2024-02-21T08:02:08;10.53;;;3.67;;
69185;SDS011;56298;49.246;9.410;2024-02-21T08:04:33;14.57;;;4.97;;
69185;SDS011;56298;49.246;9.410;2024-02-21T08:06:59;11.37;;;4.57;;
69185;SDS011;56298;49.246;9.410;2024-02-21T08:09:27;10.45;;;3.40;;
69185;SDS011;56298;49.246;9.410;2024-02-21T08:11:53;10.07;;;3.57;;
69185;SDS011;56298;49.246;9.410;2024-02-21T08:14:19;10.75;;;3.60;;
69185;SDS011;56298;49.246;9.410;2024-02-21T08:16:44;10.70;;;3.60;;
69185;SDS011;56298;49.246;9.410;2024-02-21T08:19:10;11.38;;;4.18;;
69185;SDS011;56298;49.246;9.410;2024-02-21T08:21:36;12.48;;;4.30;;
69185;SDS011;56298;49.246;9.410;2024-02-21T08:24:01;11.20;;;3.40;;
69185;SDS011;56298;49.246;9.410;2024-02-21T08:26:26;10.77;;;3.40;;
69185;SDS011;56298;49.246;9.410;2024-02-21T08:28:55;11.15;;;3.38;;
69185;SDS011;56298;49.246;9.410;2024-02-21T08:31:20;14.07;;;4.03;;
69185;SDS011;56298;49.246;9.410;2024-02-21T08:33:46;10.43;;;3.13;;
69185;SDS011;56298;49.246;9.410;2024-02-21T08:36:18;9.20;;;3.23;;
69185;SDS011;56298;49.246;9.410;2024-02-21T08:38:44;10.88;;;3.30;;
69185;SDS011;56298;49.246;9.410;2024-02-21T08:41:10;10.00;;;3.83;;
69185;SDS011;56298;49.246;9.410;2024-02-21T08:43:35;10.77;;;3.50;;
69185;SDS011;56298;49.246;9.410;2024-02-21T08:46:00;10.37;;;3.47;;
69185;SDS011;56298;49.246;9.410;2024-02-21T08:48:26;16.37;;;5.13;;
69185;SDS011;56298;49.246;9.410;2024-02-21T08:50:51;10.40;;;3.67;;
69185;SDS011;56298;49.246;9.410;2024-02-21T08:53:16;9.43;;;3.47;;
69185;SDS011;56298;49.246;9.410;2024-02-21T08:55:41;9.43;;;3.40;;
69185;SDS011;56298;49.246;9.410;2024-02-21T08:58:09;10.82;;;3.30;;
69185;SDS011;56298;49.246;9.410;2024-02-21T09:00:34;12.37;;;3.10;;
69185;SDS011;56298;49.246;9.410;2024-02-21T09:02:59;9.30;;;3.43;;
69185;SDS011;56298;49.246;9.410;2024-02-21T09:05:25;11.73;;;3.17;;
69185;SDS011;56298;49.246;9.410;2024-02-21T09:07:50;10.63;;;3.30;;
69185;SDS011;56298;49.246;9.410;2024-02-21T09:10:15;11.23;;;3.47;;
69185;SDS011;56298;49.246;9.410;2024-02-21T09:12:40;10.20;;;3.00;;
69185;SDS011;56298;49.246;9.410;2024-02-21T09:15:06;10.73;;;3.20;;
69185;SDS011;56298;49.246;9.410;2024-02-21T09:17:31;10.00;;;3.30;;
69185;SDS011;56298;49.246;9.410;2024-02-21T09:19:57;9.90;;;2.80;;
69185;SDS011;56298;49.246;9.410;2024-02-21T09:22:27;11.35;;;3.63;;
69185;SDS011;56298;49.246;9.410;2024-02-21T09:24:52;12.47;;;3.10;;
69185;SDS011;56298;49.246;9.410;2024-02-21T09:27:18;9.53;;;3.43;;
69185;SDS011;56298;49.246;9.410;2024-02-21T09:29:43;14.37;;;4.20;;
69185;SDS011;56298;49.246;9.410;2024-02-21T09:32:09;10.02;;;3.45;;
69185;SDS011;56298;49.246;9.410;2024-02-21T09:34:34;11.97;;;4.03;;
69185;SDS011;56298;49.246;9.410;2024-02-21T09:36:59;10.80;;;3.20;;
69185;SDS011;56298;49.246;9.410;2024-02-21T09:39:24;11.73;;;3.83;;
69185;SDS011;56298;49.246;9.410;2024-02-21T09:41:50;10.97;;;2.90;;
69185;SDS011;56298;49.246;9.410;2024-02-21T09:44:22;11.30;;;4.47;;
69185;SDS011;56298;49.246;9.410;2024-02-21T09:49:34;9.03;;;3.13;;
69185;SDS011;56298;49.246;9.410;2024-02-21T09:52:03;10.80;;;3.47;;
69185;SDS011;56298;49.246;9.410;2024-02-21T09:54:30;11.48;;;3.10;;
69185;SDS011;56298;49.246;9.410;2024-02-21T09:57:00;12.13;;;5.28;;
69185;SDS011;56298;49.246;9.410;2024-02-21T09:59:32;13.52;;;3.78;;
69185;SDS011;56298;49.246;9.410;2024-02-21T10:01:58;10.43;;;3.45;;
69185;SDS011;56298;49.246;9.410;2024-02-21T10:04:25;16.67;;;5.78;;
69185;SDS011;56298;49.246;9.410;2024-02-21T10:06:51;9.27;;;2.83;;
69185;SDS011;56298;49.246;9.410;2024-02-21T10:09:20;10.27;;;2.87;;
69185;SDS011;56298;49.246;9.410;2024-02-21T10:11:49;16.73;;;5.43;;
69185;SDS011;56298;49.246;9.410;2024-02-21T10:14:16;17.15;;;5.45;;
69185;SDS011;56298;49.246;9.410;2024-02-21T10:16:41;98.37;;;29.20;;
69185;SDS011;56298;49.246;9.410;2024-02-21T10:19:15;14.83;;;4.67;;
69185;SDS011;56298;49.246;9.410;2024-02-21T10:21:41;12.60;;;4.97;;
69185;SDS011;56298;49.246;9.410;2024-02-21T10:24:07;10.77;;;2.60;;
69185;SDS011;56298;49.246;9.410;2024-02-21T10:26:32;7.67;;;2.20;;
69185;SDS011;56298;49.246;9.410;2024-02-21T10:28:57;9.20;;;2.30;;
69185;SDS011;56298;49.246;9.410;2024-02-21T10:31:29;8.90;;;2.93;;
69185;SDS011;56298;49.246;9.410;2024-02-21T10:33:55;13.07;;;4.35;;
69185;SDS011;56298;49.246;9.410;2024-02-21T10:36:30;10.93;;;2.40;;
69185;SDS011;56298;49.246;9.410;2024-02-21T10:38:55;9.20;;;2.63;;
69185;SDS011;56298;49.246;9.410;2024-02-21T10:41:21;10.02;;;2.50;;
69185;SDS011;56298;49.246;9.410;2024-02-21T10:43:51;8.70;;;2.22;;
69185;SDS011;56298;49.246;9.410;2024-02-21T10:46:19;10.10;;;2.30;;
69185;SDS011;56298;49.246;9.410;2024-02-21T10:48:47;9.25;;;2.40;;
69185;SDS011;56298;49.246;9.410;2024-02-21T10:51:17;9.05;;;2.50;;
69185;SDS011;56298;49.246;9.410;2024-02-21T10:56:31;8.95;;;3.05;;
69185;SDS011;56298;49.246;9.410;2024-02-21T10:59:01;9.00;;;2.47;;
69185;SDS011;56298;49.246;9.410;2024-02-21T11:01:28;8.32;;;2.70;;
69185;SDS011;56298;49.246;9.410;2024-02-21T11:03:56;9.95;;;2.90;;
69185;SDS011;56298;49.246;9.410;2024-02-21T11:06:24;9.43;;;2.55;;
69185;SDS011;56298;49.246;9.410;2024-02-21T11:09:02;9.68;;;2.50;;
69185;SDS011;56298;49.246;9.410;2024-02-21T11:11:29;10.70;;;2.50;;
69185;SDS011;56298;49.246;9.410;2024-02-21T11:14:11;7.13;;;2.15;;
69185;SDS011;56298;49.246;9.410;2024-02-21T11:16:42;9.27;;;2.30;;
69185;SDS011;56298;49.246;9.410;2024-02-21T11:19:08;11.10;;;2.45;;
69185;SDS011;56298;49.246;9.410;2024-02-21T11:21:36;11.57;;;2.72;;
69185;SDS011;56298;49.246;9.410;2024-02-21T11:24:02;7.97;;;2.50;;
69185;SDS011;56298;49.246;9.410;2024-02-21T11:26:29;9.32;;;2.40;;
69185;SDS011;56298;49.246;9.410;2024-02-21T11:28:56;9.63;;;2.55;;
69185;SDS011;56298;49.246;9.410;2024-02-21T11:31:22;9.93;;;2.50;;
69185;SDS011;56298;49.246;9.410;2024-02-21T11:36:46;9.68;;;2.25;;
69185;SDS011;56298;49.246;9.410;2024-02-21T11:39:17;7.85;;;2.33;;
69185;SDS011;56298;49.246;9.410;2024-02-21T11:42:03;11.02;;;2.35;;
69185;SDS011;56298;49.246;9.410;2024-02-21T11:44:29;8.18;;;2.10;;
69185;SDS011;56298;49.246;9.410;2024-02-21T11:46:55;7.55;;;2.10;;
69185;SDS011;56298;49.246;9.410;2024-02-21T11:49:20;7.67;;;1.90;;
69185;SDS011;56298;49.246;9.410;2024-02-21T11:51:46;8.73;;;1.93;;
69185;SDS011;56298;49.246;9.410;2024-02-21T11:54:13;8.98;;;2.13;;
69185;SDS011;56298;49.246;9.410;2024-02-21T11:56:42;7.75;;;2.40;;
69185;SDS011;56298;49.246;9.410;2024-02-21T11:59:08;9.07;;;2.13;;
69185;SDS011;56298;49.246;9.410;2024-02-21T12:01:33;7.47;;;1.90;;
69185;SDS011;56298;49.246;9.410;2024-02-21T12:03:59;9.20;;;1.90;;
69185;SDS011;56298;49.246;9.410;2024-02-21T12:06:24;8.23;;;2.00;;
69185;SDS011;56298;49.246;9.410;2024-02-21T12:08:49;7.83;;;2.07;;
69185;SDS011;56298;49.246;9.410;2024-02-21T12:11:21;7.07;;;1.80;;
69185;SDS011;56298;49.246;9.410;2024-02-21T12:13:47;7.63;;;2.00;;
69185;SDS011;56298;49.246;9.410;2024-02-21T12:16:24;10.23;;;2.55;;
69185;SDS011;56298;49.246;9.410;2024-02-21T12:18:49;9.80;;;2.80;;
69185;SDS011;56298;49.246;9.410;2024-02-21T12:21:18;10.10;;;2.40;;
69185;SDS011;56298;49.246;9.410;2024-02-21T12:23:43;10.20;;;2.20;;
69185;SDS011;56298;49.246;9.410;2024-02-21T12:26:08;8.30;;;1.90;;
69185;SDS011;56298;49.246;9.410;2024-02-21T12:28:33;7.57;;;1.80;;
69185;SDS011;56298;49.246;9.410;2024-02-21T12:30:59;9.47;;;2.00;;
69185;SDS011;56298;49.246;9.410;2024-02-21T12:33:24;9.43;;;2.20;;
69185;SDS011;56298;49.246;9.410;2024-02-21T12:35:49;8.77;;;2.27;;
69185;SDS011;56298;49.246;9.410;2024-02-21T12:38:14;9.20;;;2.50;;
69185;SDS011;56298;49.246;9.410;2024-02-21T12:40:40;9.10;;;1.90;;
69185;SDS011;56298;49.246;9.410;2024-02-21T12:43:05;8.30;;;2.30;;
69185;SDS011;56298;49.246;9.410;2024-02-21T12:45:30;8.30;;;1.93;;
69185;SDS011;56298;49.246;9.410;2024-02-21T12:47:56;7.15;;;1.88;;
69185;SDS011;56298;49.246;9.410;2024-02-21T12:50:21;9.13;;;2.00;;
69185;SDS011;56298;49.246;9.410;2024-02-21T12:52:47;7.10;;;2.23;;
69185;SDS011;56298;49.246;9.410;2024-02-21T12:55:14;7.32;;;1.98;;
69185;SDS011;56298;49.246;9.410;2024-02-21T12:57:40;8.17;;;1.90;;
69185;SDS011;56298;49.246;9.410;2024-02-21T13:00:05;7.80;;;1.80;;
69185;SDS011;56298;49.246;9.410;2024-02-21T13:02:33;6.75;;;1.85;;
69185;SDS011;56298;49.246;9.410;2024-02-21T13:04:59;8.70;;;2.20;;
69185;SDS011;56298;49.246;9.410;2024-02-21T13:07:25;7.15;;;1.60;;
69185;SDS011;56298;49.246;9.410;2024-02-21T13:09:50;7.07;;;1.80;;
69185;SDS011;56298;49.246;9.410;2024-02-21T13:12:15;9.77;;;1.85;;
69185;SDS011;56298;49.246;9.410;2024-02-21T13:14:41;8.00;;;1.80;;
69185;SDS011;56298;49.246;9.410;2024-02-21T13:17:08;11.57;;;2.83;;
69185;SDS011;56298;49.246;9.410;2024-02-21T13:19:34;12.17;;;3.17;;
69185;SDS011;56298;49.246;9.410;2024-02-21T13:21:59;11.47;;;2.93;;
69185;SDS011;56298;49.246;9.410;2024-02-21T13:24:24;9.83;;;2.80;;
69185;SDS011;56298;49.246;9.410;2024-02-21T13:26:50;10.00;;;3.03;;
69185;SDS011;56298;49.246;9.410;2024-02-21T13:29:15;8.83;;;2.80;;
69185;SDS011;56298;49.246;9.410;2024-02-21T13:31:40;8.90;;;2.53;;
69185;SDS011;56298;49.246;9.410;2024-02-21T13:34:05;9.90;;;2.30;;
69185;SDS011;56298;49.246;9.410;2024-02-21T13:36:31;7.33;;;2.10;;
69185;SDS011;56298;49.246;9.410;2024-02-21T13:38:56;10.25;;;2.10;;
69185;SDS011;56298;49.246;9.410;2024-02-21T13:41:22;7.73;;;1.90;;
69185;SDS011;56298;49.246;9.410;2024-02-21T13:43:48;6.63;;;1.80;;
69185;SDS011;56298;49.246;9.410;2024-02-21T13:46:13;7.47;;;1.93;;
69185;SDS011;56298;49.246;9.410;2024-02-21T13:48:38;9.67;;;2.60;;
69185;SDS011;56298;49.246;9.410;2024-02-21T13:51:04;9.17;;;2.40;;
69185;SDS011;56298;49.246;9.410;2024-02-21T13:53:29;9.50;;;1.90;;
69185;SDS011;56298;49.246;9.410;2024-02-21T13:55:54;8.47;;;2.17;;
69185;SDS011;56298;49.246;9.410;2024-02-21T13:58:20;8.33;;;1.90;;
69185;SDS011;56298;49.246;9.410;2024-02-21T14:00:46;6.97;;;1.60;;
69185;SDS011;56298;49.246;9.410;2024-02-21T14:03:11;8.57;;;1.83;;
69185;SDS011;56298;49.246;9.410;2024-02-21T14:05:36;8.20;;;1.90;;
69185;SDS011;56298;49.246;9.410;2024-02-21T14:08:02;9.20;;;2.20;;
69185;SDS011;56298;49.246;9.410;2024-02-21T14:10:27;8.13;;;2.22;;
69185;SDS011;56298;49.246;9.410;2024-02-21T14:12:53;7.20;;;1.90;;
69185;SDS011;56298;49.246;9.410;2024-02-21T14:15:18;8.97;;;2.20;;
69185;SDS011;56298;49.246;9.410;2024-02-21T14:17:44;9.40;;;1.90;;
69185;SDS011;56298;49.246;9.410;2024-02-21T14:20:09;8.10;;;1.93;;
69185;SDS011;56298;49.246;9.410;2024-02-21T14:22:35;8.17;;;1.87;;
69185;SDS011;56298;49.246;9.410;2024-02-21T14:25:02;6.93;;;2.13;;
69185;SDS011;56298;49.246;9.410;2024-02-21T14:27:30;9.23;;;2.10;;
69185;SDS011;56298;49.246;9.410;2024-02-21T14:29:55;7.13;;;2.08;;
69185;SDS011;56298;49.246;9.410;2024-02-21T14:32:21;7.60;;;2.10;;
69185;SDS011;56298;49.246;9.410;2024-02-21T14:34:46;8.10;;;2.20;;
69185;SDS011;56298;49.246;9.410;2024-02-21T14:37:11;7.87;;;2.10;;
69185;SDS011;56298;49.246;9.410;2024-02-21T14:39:37;8.13;;;2.00;;